Aviation Digital Data Service (ADDS)

Output produced by METARs form (0654 UTC 20 March 2019)
found at http://www.aviationweather.gov/metar/data/
 
METAR text: PGUM 200637Z 05013KT 10SM BKN026 BKN034 28/22 A2983 RMK AO2 T02830217
Conditions at: PGUM (AGANA , GU, US) observed 0637 UTC 20 March 2019
Temperature: 28.3°C (83°F)
Dewpoint: 21.7°C (71°F) [RH = 67%]
Pressure (altimeter): 29.83 inches Hg (1010.2 mb)
Winds: from the NE (50 degrees) at 15 MPH (13 knots; 6.7 m/s)
Visibility: 10 or more miles (16+ km)
Ceiling: 2600 feet AGL
Clouds: broken clouds at 2600 feet AGL
broken clouds at 3400 feet AGL
Weather: no significant weather observed at this time

METAR text: PGUM 200554Z 06011KT 10SM SCT027 BKN033 BKN045 30/22 A2982 RMK AO2 SLP089 T03000217 10306 20283 56021
Conditions at: PGUM (AGANA , GU, US) observed 0554 UTC 20 March 2019
Temperature: 30.0°C (86°F)
Dewpoint: 21.7°C (71°F) [RH = 61%]
Pressure (altimeter): 29.82 inches Hg (1009.9 mb)
[Sea-level pressure: 1008.9 mb]
Winds: from the ENE (60 degrees) at 13 MPH (11 knots; 5.7 m/s)
Visibility: 10 or more miles (16+ km)
Ceiling: 3300 feet AGL
Clouds: scattered clouds at 2700 feet AGL
broken clouds at 3300 feet AGL
broken clouds at 4500 feet AGL
Weather: no significant weather observed at this time

METAR text: PGUM 200454Z 05014KT 10SM SCT026 BKN034 BKN048 29/22 A2983 RMK AO2 SLP094 T02890217
Conditions at: PGUM (AGANA , GU, US) observed 0454 UTC 20 March 2019
Temperature: 28.9°C (84°F)
Dewpoint: 21.7°C (71°F) [RH = 65%]
Pressure (altimeter): 29.83 inches Hg (1010.2 mb)
[Sea-level pressure: 1009.4 mb]
Winds: from the NE (50 degrees) at 16 MPH (14 knots; 7.2 m/s)
Visibility: 10 or more miles (16+ km)
Ceiling: 3400 feet AGL
Clouds: scattered clouds at 2600 feet AGL
broken clouds at 3400 feet AGL
broken clouds at 4800 feet AGL
Weather: no significant weather observed at this time

METAR text: PGUM 200446Z 04015KT 10SM BKN028 BKN035 OVC060 29/21 A2984 RMK AO2 T02890211
Conditions at: PGUM (AGANA , GU, US) observed 0446 UTC 20 March 2019
Temperature: 28.9°C (84°F)
Dewpoint: 21.1°C (70°F) [RH = 63%]
Pressure (altimeter): 29.84 inches Hg (1010.6 mb)
Winds: from the NE (40 degrees) at 17 MPH (15 knots; 7.7 m/s)
Visibility: 10 or more miles (16+ km)
Ceiling: 2800 feet AGL
Clouds: broken clouds at 2800 feet AGL
broken clouds at 3500 feet AGL
overcast cloud deck at 6000 feet AGL
Weather: no significant weather observed at this time

METAR text: PGUM 200354Z 05012KT 10SM FEW028 FEW044 29/21 A2986 RMK AO2 SLP103 T02940206
Conditions at: PGUM (AGANA , GU, US) observed 0354 UTC 20 March 2019
Temperature: 29.4°C (85°F)
Dewpoint: 20.6°C (69°F) [RH = 59%]
Pressure (altimeter): 29.86 inches Hg (1011.3 mb)
[Sea-level pressure: 1010.3 mb]
Winds: from the NE (50 degrees) at 14 MPH (12 knots; 6.2 m/s)
Visibility: 10 or more miles (16+ km)
Ceiling: at least 12,000 feet AGL
Clouds: few clouds at 2800 feet AGL
few clouds at 4400 feet AGL
Weather: no significant weather observed at this time

METAR text: PGUM 200254Z 05015KT 10SM FEW029 SCT039 BKN048 29/21 A2988 RMK AO2 SLP111 T02940211 58015
Conditions at: PGUM (AGANA , GU, US) observed 0254 UTC 20 March 2019
Temperature: 29.4°C (85°F)
Dewpoint: 21.1°C (70°F) [RH = 61%]
Pressure (altimeter): 29.88 inches Hg (1011.9 mb)
[Sea-level pressure: 1011.1 mb]
Winds: from the NE (50 degrees) at 17 MPH (15 knots; 7.7 m/s)
Visibility: 10 or more miles (16+ km)
Ceiling: 4800 feet AGL
Clouds: few clouds at 2900 feet AGL
scattered clouds at 3900 feet AGL
broken clouds at 4800 feet AGL
Weather: no significant weather observed at this time

METAR text: PGUM 200154Z 04013KT 10SM FEW030 SCT042 BKN055 29/21 A2991 RMK AO2 SLP119 T02890211
Conditions at: PGUM (AGANA , GU, US) observed 0154 UTC 20 March 2019
Temperature: 28.9°C (84°F)
Dewpoint: 21.1°C (70°F) [RH = 63%]
Pressure (altimeter): 29.91 inches Hg (1013.0 mb)
[Sea-level pressure: 1011.9 mb]
Winds: from the NE (40 degrees) at 15 MPH (13 knots; 6.7 m/s)
Visibility: 10 or more miles (16+ km)
Ceiling: 5500 feet AGL
Clouds: few clouds at 3000 feet AGL
scattered clouds at 4200 feet AGL
broken clouds at 5500 feet AGL
Weather: no significant weather observed at this time

METAR text: PGUM 200128Z 05014KT 10SM SCT026 BKN032 BKN038 29/21 A2991 RMK AO2 T02940211
Conditions at: PGUM (AGANA , GU, US) observed 0128 UTC 20 March 2019
Temperature: 29.4°C (85°F)
Dewpoint: 21.1°C (70°F) [RH = 61%]
Pressure (altimeter): 29.91 inches Hg (1013.0 mb)
Winds: from the NE (50 degrees) at 16 MPH (14 knots; 7.2 m/s)
Visibility: 10 or more miles (16+ km)
Ceiling: 3200 feet AGL
Clouds: scattered clouds at 2600 feet AGL
broken clouds at 3200 feet AGL
broken clouds at 3800 feet AGL
Weather: no significant weather observed at this time

METAR text: PGUM 200119Z 05015G20KT 10SM BKN028 BKN043 BKN050 29/21 A2991 RMK AO2 T02940211
Conditions at: PGUM (AGANA , GU, US) observed 0119 UTC 20 March 2019
Temperature: 29.4°C (85°F)
Dewpoint: 21.1°C (70°F) [RH = 61%]
Pressure (altimeter): 29.91 inches Hg (1013.0 mb)
Winds: from the NE (50 degrees) at 17 MPH (15 knots; 7.7 m/s)
gusting to 23 MPH (20 knots; 10.3 m/s)
Visibility: 10 or more miles (16+ km)
Ceiling: 2800 feet AGL
Clouds: broken clouds at 2800 feet AGL
broken clouds at 4300 feet AGL
broken clouds at 5000 feet AGL
Weather: no significant weather observed at this time

METAR text: PGUM 200054Z 05011KT 10SM SCT028 SCT035 BKN047 29/21 A2992 RMK AO2 SLP124 T02940206
Conditions at: PGUM (AGANA , GU, US) observed 0054 UTC 20 March 2019
Temperature: 29.4°C (85°F)
Dewpoint: 20.6°C (69°F) [RH = 59%]
Pressure (altimeter): 29.92 inches Hg (1013.3 mb)
[Sea-level pressure: 1012.4 mb]
Winds: from the NE (50 degrees) at 13 MPH (11 knots; 5.7 m/s)
Visibility: 10 or more miles (16+ km)
Ceiling: 4700 feet AGL
Clouds: scattered clouds at 2800 feet AGL
scattered clouds at 3500 feet AGL
broken clouds at 4700 feet AGL
Weather: no significant weather observed at this time

METAR text: PGUM 192354Z 04013KT 10SM FEW024 BKN037 BKN044 28/21 A2993 RMK AO2 SLP126 T02830211 10289 20239 51018
Conditions at: PGUM (AGANA , GU, US) observed 2354 UTC 19 March 2019
Temperature: 28.3°C (83°F)
Dewpoint: 21.1°C (70°F) [RH = 65%]
Pressure (altimeter): 29.93 inches Hg (1013.6 mb)
[Sea-level pressure: 1012.6 mb]
Winds: from the NE (40 degrees) at 15 MPH (13 knots; 6.7 m/s)
Visibility: 10 or more miles (16+ km)
Ceiling: 3700 feet AGL
Clouds: few clouds at 2400 feet AGL
broken clouds at 3700 feet AGL
broken clouds at 4400 feet AGL
Weather: no significant weather observed at this time

METAR text: PGUM 192254Z 04013KT 10SM FEW025 SCT034 28/22 A2991 RMK AO2 SLP122 T02780217
Conditions at: PGUM (AGANA , GU, US) observed 2254 UTC 19 March 2019
Temperature: 27.8°C (82°F)
Dewpoint: 21.7°C (71°F) [RH = 69%]
Pressure (altimeter): 29.91 inches Hg (1013.0 mb)
[Sea-level pressure: 1012.2 mb]
Winds: from the NE (40 degrees) at 15 MPH (13 knots; 6.7 m/s)
Visibility: 10 or more miles (16+ km)
Ceiling: at least 12,000 feet AGL
Clouds: few clouds at 2500 feet AGL
scattered clouds at 3400 feet AGL
Weather: no significant weather observed at this time

METAR text: PGUM 192228Z 05015KT 10SM SCT023 SCT031 28/22 A2991 RMK AO2 T02780217
Conditions at: PGUM (AGANA , GU, US) observed 2228 UTC 19 March 2019
Temperature: 27.8°C (82°F)
Dewpoint: 21.7°C (71°F) [RH = 69%]
Pressure (altimeter): 29.91 inches Hg (1013.0 mb)
Winds: from the NE (50 degrees) at 17 MPH (15 knots; 7.7 m/s)
Visibility: 10 or more miles (16+ km)
Ceiling: at least 12,000 feet AGL
Clouds: scattered clouds at 2300 feet AGL
scattered clouds at 3100 feet AGL
Weather: no significant weather observed at this time

METAR text: PGUM 192215Z 05014KT 10SM BKN023 BKN030 28/22 A2990 RMK AO2 T02780217
Conditions at: PGUM (AGANA , GU, US) observed 2215 UTC 19 March 2019
Temperature: 27.8°C (82°F)
Dewpoint: 21.7°C (71°F) [RH = 69%]
Pressure (altimeter): 29.90 inches Hg (1012.6 mb)
Winds: from the NE (50 degrees) at 16 MPH (14 knots; 7.2 m/s)
Visibility: 10 or more miles (16+ km)
Ceiling: 2300 feet AGL
Clouds: broken clouds at 2300 feet AGL
broken clouds at 3000 feet AGL
Weather: no significant weather observed at this time

METAR text: PGUM 192154Z 04011KT 10SM CLR 27/22 A2990 RMK AO2 SLP116 T02670222
Conditions at: PGUM (AGANA , GU, US) observed 2154 UTC 19 March 2019
Temperature: 26.7°C (80°F)
Dewpoint: 22.2°C (72°F) [RH = 76%]
Pressure (altimeter): 29.90 inches Hg (1012.6 mb)
[Sea-level pressure: 1011.6 mb]
Winds: from the NE (40 degrees) at 13 MPH (11 knots; 5.7 m/s)
Visibility: 10 or more miles (16+ km)
Ceiling: at least 12,000 feet AGL
Clouds: sky clear below 12,000 feet AGL
Weather: no significant weather observed at this time

METAR text: PGUM 192054Z 05006KT 10SM FEW021 SCT034 24/22 A2987 RMK AO2 SLP109 T02440217 53006
Conditions at: PGUM (AGANA , GU, US) observed 2054 UTC 19 March 2019
Temperature: 24.4°C (76°F)
Dewpoint: 21.7°C (71°F) [RH = 85%]
Pressure (altimeter): 29.87 inches Hg (1011.6 mb)
[Sea-level pressure: 1010.9 mb]
Winds: from the NE (50 degrees) at 7 MPH (6 knots; 3.1 m/s)
Visibility: 10 or more miles (16+ km)
Ceiling: at least 12,000 feet AGL
Clouds: few clouds at 2100 feet AGL
scattered clouds at 3400 feet AGL
Weather: no significant weather observed at this time

METAR text: PGUM 191954Z 04006KT 10SM CLR 24/21 A2985 RMK AO2 SLP103 T02390211
Conditions at: PGUM (AGANA , GU, US) observed 1954 UTC 19 March 2019
Temperature: 23.9°C (75°F)
Dewpoint: 21.1°C (70°F) [RH = 84%]
Pressure (altimeter): 29.85 inches Hg (1010.9 mb)
[Sea-level pressure: 1010.3 mb]
Winds: from the NE (40 degrees) at 7 MPH (6 knots; 3.1 m/s)
Visibility: 10 or more miles (16+ km)
Ceiling: at least 12,000 feet AGL
Clouds: sky clear below 12,000 feet AGL
Weather: no significant weather observed at this time

METAR text: PGUM 191854Z 05006KT 10SM CLR 24/21 A2985 RMK AO2 SLP100 T02390211
Conditions at: PGUM (AGANA , GU, US) observed 1854 UTC 19 March 2019
Temperature: 23.9°C (75°F)
Dewpoint: 21.1°C (70°F) [RH = 84%]
Pressure (altimeter): 29.85 inches Hg (1010.9 mb)
[Sea-level pressure: 1010.0 mb]
Winds: from the NE (50 degrees) at 7 MPH (6 knots; 3.1 m/s)
Visibility: 10 or more miles (16+ km)
Ceiling: at least 12,000 feet AGL
Clouds: sky clear below 12,000 feet AGL
Weather: no significant weather observed at this time

METAR text: PGUM 191754Z 05007KT 10SM CLR 24/21 A2986 RMK AO2 SLP102 T02390206 10267 20239 56015
Conditions at: PGUM (AGANA , GU, US) observed 1754 UTC 19 March 2019
Temperature: 23.9°C (75°F)
Dewpoint: 20.6°C (69°F) [RH = 82%]
Pressure (altimeter): 29.86 inches Hg (1011.3 mb)
[Sea-level pressure: 1010.2 mb]
Winds: from the NE (50 degrees) at 8 MPH (7 knots; 3.6 m/s)
Visibility: 10 or more miles (16+ km)
Ceiling: at least 12,000 feet AGL
Clouds: sky clear below 12,000 feet AGL
Weather: no significant weather observed at this time

METAR text: PGUM 191654Z 06007KT 10SM CLR 24/21 A2986 RMK AO2 SLP105 T02440211
Conditions at: PGUM (AGANA , GU, US) observed 1654 UTC 19 March 2019
Temperature: 24.4°C (76°F)
Dewpoint: 21.1°C (70°F) [RH = 82%]
Pressure (altimeter): 29.86 inches Hg (1011.3 mb)
[Sea-level pressure: 1010.5 mb]
Winds: from the ENE (60 degrees) at 8 MPH (7 knots; 3.6 m/s)
Visibility: 10 or more miles (16+ km)
Ceiling: at least 12,000 feet AGL
Clouds: sky clear below 12,000 feet AGL
Weather: no significant weather observed at this time

METAR text: PGUM 191613Z 05006KT 10SM FEW022 SCT027 25/21 A2987 RMK AO2 T02500211
Conditions at: PGUM (AGANA , GU, US) observed 1613 UTC 19 March 2019
Temperature: 25.0°C (77°F)
Dewpoint: 21.1°C (70°F) [RH = 79%]
Pressure (altimeter): 29.87 inches Hg (1011.6 mb)
Winds: from the NE (50 degrees) at 7 MPH (6 knots; 3.1 m/s)
Visibility: 10 or more miles (16+ km)
Ceiling: at least 12,000 feet AGL
Clouds: few clouds at 2200 feet AGL
scattered clouds at 2700 feet AGL
Weather: no significant weather observed at this time

METAR text: PGUM 191603Z 05005KT 10SM FEW020 BKN027 BKN033 24/21 A2988 RMK AO2 T02440211
Conditions at: PGUM (AGANA , GU, US) observed 1603 UTC 19 March 2019
Temperature: 24.4°C (76°F)
Dewpoint: 21.1°C (70°F) [RH = 82%]
Pressure (altimeter): 29.88 inches Hg (1011.9 mb)
Winds: from the NE (50 degrees) at 6 MPH (5 knots; 2.6 m/s)
Visibility: 10 or more miles (16+ km)
Ceiling: 2700 feet AGL
Clouds: few clouds at 2000 feet AGL
broken clouds at 2700 feet AGL
broken clouds at 3300 feet AGL
Weather: no significant weather observed at this time

METAR text: PGUM 191554Z 04005KT 10SM FEW019 SCT027 24/21 A2988 RMK AO2 SLP111 T02440211
Conditions at: PGUM (AGANA , GU, US) observed 1554 UTC 19 March 2019
Temperature: 24.4°C (76°F)
Dewpoint: 21.1°C (70°F) [RH = 82%]
Pressure (altimeter): 29.88 inches Hg (1011.9 mb)
[Sea-level pressure: 1011.1 mb]
Winds: from the NE (40 degrees) at 6 MPH (5 knots; 2.6 m/s)
Visibility: 10 or more miles (16+ km)
Ceiling: at least 12,000 feet AGL
Clouds: few clouds at 1900 feet AGL
scattered clouds at 2700 feet AGL
Weather: no significant weather observed at this time

METAR text: PGUM 191536Z 05006KT 10SM FEW022 SCT027 25/21 A2989 RMK AO2 T02500211
Conditions at: PGUM (AGANA , GU, US) observed 1536 UTC 19 March 2019
Temperature: 25.0°C (77°F)
Dewpoint: 21.1°C (70°F) [RH = 79%]
Pressure (altimeter): 29.89 inches Hg (1012.3 mb)
Winds: from the NE (50 degrees) at 7 MPH (6 knots; 3.1 m/s)
Visibility: 10 or more miles (16+ km)
Ceiling: at least 12,000 feet AGL
Clouds: few clouds at 2200 feet AGL
scattered clouds at 2700 feet AGL
Weather: no significant weather observed at this time

METAR text: PGUM 191506Z 05006KT 10SM FEW020 BKN025 25/21 A2990 RMK AO2 T02500211
Conditions at: PGUM (AGANA , GU, US) observed 1506 UTC 19 March 2019
Temperature: 25.0°C (77°F)
Dewpoint: 21.1°C (70°F) [RH = 79%]
Pressure (altimeter): 29.90 inches Hg (1012.6 mb)
Winds: from the NE (50 degrees) at 7 MPH (6 knots; 3.1 m/s)
Visibility: 10 or more miles (16+ km)
Ceiling: 2500 feet AGL
Clouds: few clouds at 2000 feet AGL
broken clouds at 2500 feet AGL
Weather: no significant weather observed at this time

METAR text: PGUM 191454Z 05006KT 10SM FEW025 25/21 A2990 RMK AO2 SLP117 T02500211 58009
Conditions at: PGUM (AGANA , GU, US) observed 1454 UTC 19 March 2019
Temperature: 25.0°C (77°F)
Dewpoint: 21.1°C (70°F) [RH = 79%]
Pressure (altimeter): 29.90 inches Hg (1012.6 mb)
[Sea-level pressure: 1011.7 mb]
Winds: from the NE (50 degrees) at 7 MPH (6 knots; 3.1 m/s)
Visibility: 10 or more miles (16+ km)
Ceiling: at least 12,000 feet AGL
Clouds: few clouds at 2500 feet AGL
Weather: no significant weather observed at this time

METAR text: PGUM 191424Z 06006KT 10SM SCT021 26/22 A2991 RMK AO2 T02560217
Conditions at: PGUM (AGANA , GU, US) observed 1424 UTC 19 March 2019
Temperature: 25.6°C (78°F)
Dewpoint: 21.7°C (71°F) [RH = 79%]
Pressure (altimeter): 29.91 inches Hg (1013.0 mb)
Winds: from the ENE (60 degrees) at 7 MPH (6 knots; 3.1 m/s)
Visibility: 10 or more miles (16+ km)
Ceiling: at least 12,000 feet AGL
Clouds: scattered clouds at 2100 feet AGL
Weather: no significant weather observed at this time

METAR text: PGUM 191416Z 06006KT 10SM BKN021 26/21 A2991 RMK AO2 T02560211
Conditions at: PGUM (AGANA , GU, US) observed 1416 UTC 19 March 2019
Temperature: 25.6°C (78°F)
Dewpoint: 21.1°C (70°F) [RH = 76%]
Pressure (altimeter): 29.91 inches Hg (1013.0 mb)
Winds: from the ENE (60 degrees) at 7 MPH (6 knots; 3.1 m/s)
Visibility: 10 or more miles (16+ km)
Ceiling: 2100 feet AGL
Clouds: broken clouds at 2100 feet AGL
Weather: no significant weather observed at this time

METAR text: PGUM 191354Z 06007KT 10SM CLR 26/21 A2992 RMK AO2 SLP123 T02560211 403060244
Conditions at: PGUM (AGANA , GU, US) observed 1354 UTC 19 March 2019
Temperature: 25.6°C (78°F)
Dewpoint: 21.1°C (70°F) [RH = 76%]
Pressure (altimeter): 29.92 inches Hg (1013.3 mb)
[Sea-level pressure: 1012.3 mb]
Winds: from the ENE (60 degrees) at 8 MPH (7 knots; 3.6 m/s)
Visibility: 10 or more miles (16+ km)
Ceiling: at least 12,000 feet AGL
Clouds: sky clear below 12,000 feet AGL
Weather: no significant weather observed at this time

METAR text: PGUM 191254Z 07009KT 10SM FEW027 26/22 A2993 RMK AO2 SLP126 T02610222
Conditions at: PGUM (AGANA , GU, US) observed 1254 UTC 19 March 2019
Temperature: 26.1°C (79°F)
Dewpoint: 22.2°C (72°F) [RH = 79%]
Pressure (altimeter): 29.93 inches Hg (1013.6 mb)
[Sea-level pressure: 1012.6 mb]
Winds: from the ENE (70 degrees) at 10 MPH (9 knots; 4.6 m/s)
Visibility: 10 or more miles (16+ km)
Ceiling: at least 12,000 feet AGL
Clouds: few clouds at 2700 feet AGL
Weather: no significant weather observed at this time

METAR text: PGUM 191154Z 06008KT 10SM FEW020 FEW029 SCT036 27/22 A2993 RMK AO2 SLP127 70003 T02670217 10300 20261 51016
Conditions at: PGUM (AGANA , GU, US) observed 1154 UTC 19 March 2019
Temperature: 26.7°C (80°F)
Dewpoint: 21.7°C (71°F) [RH = 74%]
Pressure (altimeter): 29.93 inches Hg (1013.6 mb)
[Sea-level pressure: 1012.7 mb]
Winds: from the ENE (60 degrees) at 9 MPH (8 knots; 4.1 m/s)
Visibility: 10 or more miles (16+ km)
Ceiling: at least 12,000 feet AGL
Clouds: few clouds at 2000 feet AGL
few clouds at 2900 feet AGL
scattered clouds at 3600 feet AGL
Weather: no significant weather observed at this time

METAR text: PGUM 191054Z 07008KT 10SM FEW030 27/22 A2992 RMK AO2 SLP123 T02670222
Conditions at: PGUM (AGANA , GU, US) observed 1054 UTC 19 March 2019
Temperature: 26.7°C (80°F)
Dewpoint: 22.2°C (72°F) [RH = 76%]
Pressure (altimeter): 29.92 inches Hg (1013.3 mb)
[Sea-level pressure: 1012.3 mb]
Winds: from the ENE (70 degrees) at 9 MPH (8 knots; 4.1 m/s)
Visibility: 10 or more miles (16+ km)
Ceiling: at least 12,000 feet AGL
Clouds: few clouds at 3000 feet AGL
Weather: no significant weather observed at this time

METAR text: PGUM 190954Z 06008KT 10SM CLR 27/22 A2990 RMK AO2 SLP117 T02670217
Conditions at: PGUM (AGANA , GU, US) observed 0954 UTC 19 March 2019
Temperature: 26.7°C (80°F)
Dewpoint: 21.7°C (71°F) [RH = 74%]
Pressure (altimeter): 29.90 inches Hg (1012.6 mb)
[Sea-level pressure: 1011.7 mb]
Winds: from the ENE (60 degrees) at 9 MPH (8 knots; 4.1 m/s)
Visibility: 10 or more miles (16+ km)
Ceiling: at least 12,000 feet AGL
Clouds: sky clear below 12,000 feet AGL
Weather: no significant weather observed at this time

METAR text: PGUM 190854Z 07011KT 10SM CLR 27/21 A2988 RMK AO2 SLP111 T02670206 51012
Conditions at: PGUM (AGANA , GU, US) observed 0854 UTC 19 March 2019
Temperature: 26.7°C (80°F)
Dewpoint: 20.6°C (69°F) [RH = 69%]
Pressure (altimeter): 29.88 inches Hg (1011.9 mb)
[Sea-level pressure: 1011.1 mb]
Winds: from the ENE (70 degrees) at 13 MPH (11 knots; 5.7 m/s)
Visibility: 10 or more miles (16+ km)
Ceiling: at least 12,000 feet AGL
Clouds: sky clear below 12,000 feet AGL
Weather: no significant weather observed at this time

METAR text: PGUM 190754Z 08013KT 10SM FEW029 28/22 A2987 RMK AO2 SLP107 T02780217
Conditions at: PGUM (AGANA , GU, US) observed 0754 UTC 19 March 2019
Temperature: 27.8°C (82°F)
Dewpoint: 21.7°C (71°F) [RH = 69%]
Pressure (altimeter): 29.87 inches Hg (1011.6 mb)
[Sea-level pressure: 1010.7 mb]
Winds: from the E (80 degrees) at 15 MPH (13 knots; 6.7 m/s)
Visibility: 10 or more miles (16+ km)
Ceiling: at least 12,000 feet AGL
Clouds: few clouds at 2900 feet AGL
Weather: no significant weather observed at this time

METAR text: PGUM 190654Z 07017KT 10SM FEW027 29/21 A2986 RMK AO2 SLP102 T02890211
Conditions at: PGUM (AGANA , GU, US) observed 0654 UTC 19 March 2019
Temperature: 28.9°C (84°F)
Dewpoint: 21.1°C (70°F) [RH = 63%]
Pressure (altimeter): 29.86 inches Hg (1011.3 mb)
[Sea-level pressure: 1010.2 mb]
Winds: from the ENE (70 degrees) at 20 MPH (17 knots; 8.7 m/s)
Visibility: 10 or more miles (16+ km)
Ceiling: at least 12,000 feet AGL
Clouds: few clouds at 2700 feet AGL
Weather: no significant weather observed at this time

METAR text: PGUM 190554Z 07018KT 10SM FEW027 SCT034 29/21 A2985 RMK AO2 SLP098 60000 T02940211 10306 20278 56016
Conditions at: PGUM (AGANA , GU, US) observed 0554 UTC 19 March 2019
Temperature: 29.4°C (85°F)
Dewpoint: 21.1°C (70°F) [RH = 61%]
Pressure (altimeter): 29.85 inches Hg (1010.9 mb)
[Sea-level pressure: 1009.8 mb]
Winds: from the ENE (70 degrees) at 21 MPH (18 knots; 9.3 m/s)
Visibility: 10 or more miles (16+ km)
Ceiling: at least 12,000 feet AGL
Clouds: few clouds at 2700 feet AGL
scattered clouds at 3400 feet AGL
Weather: no significant weather observed at this time

METAR text: PGUM 190543Z 07019G23KT 10SM SCT028 SCT038 30/21 A2985 RMK AO2 T03000206
Conditions at: PGUM (AGANA , GU, US) observed 0543 UTC 19 March 2019
Temperature: 30.0°C (86°F)
Dewpoint: 20.6°C (69°F) [RH = 57%]
Pressure (altimeter): 29.85 inches Hg (1010.9 mb)
Winds: from the ENE (70 degrees) at 22 MPH (19 knots; 9.8 m/s)
gusting to 26 MPH (23 knots; 11.8 m/s)
Visibility: 10 or more miles (16+ km)
Ceiling: at least 12,000 feet AGL
Clouds: scattered clouds at 2800 feet AGL
scattered clouds at 3800 feet AGL
Weather: no significant weather observed at this time

METAR text: PGUM 190503Z 07016KT 10SM BKN029 BKN035 29/21 A2985 RMK AO2 T02940211
Conditions at: PGUM (AGANA , GU, US) observed 0503 UTC 19 March 2019
Temperature: 29.4°C (85°F)
Dewpoint: 21.1°C (70°F) [RH = 61%]
Pressure (altimeter): 29.85 inches Hg (1010.9 mb)
Winds: from the ENE (70 degrees) at 18 MPH (16 knots; 8.2 m/s)
Visibility: 10 or more miles (16+ km)
Ceiling: 2900 feet AGL
Clouds: broken clouds at 2900 feet AGL
broken clouds at 3500 feet AGL
Weather: no significant weather observed at this time

METAR text: PGUM 190454Z 08016G23KT 10SM SCT029 BKN035 BKN043 30/21 A2985 RMK AO2 SLP100 T03000206
Conditions at: PGUM (AGANA , GU, US) observed 0454 UTC 19 March 2019
Temperature: 30.0°C (86°F)
Dewpoint: 20.6°C (69°F) [RH = 57%]
Pressure (altimeter): 29.85 inches Hg (1010.9 mb)
[Sea-level pressure: 1010.0 mb]
Winds: from the E (80 degrees) at 18 MPH (16 knots; 8.2 m/s)
gusting to 26 MPH (23 knots; 11.8 m/s)
Visibility: 10 or more miles (16+ km)
Ceiling: 3500 feet AGL
Clouds: scattered clouds at 2900 feet AGL
broken clouds at 3500 feet AGL
broken clouds at 4300 feet AGL
Weather: no significant weather observed at this time

METAR text: PGUM 190439Z 06017G24KT 10SM FEW026 BKN032 BKN040 30/21 A2986 RMK AO2 T03000211
Conditions at: PGUM (AGANA , GU, US) observed 0439 UTC 19 March 2019
Temperature: 30.0°C (86°F)
Dewpoint: 21.1°C (70°F) [RH = 59%]
Pressure (altimeter): 29.86 inches Hg (1011.3 mb)
Winds: from the ENE (60 degrees) at 20 MPH (17 knots; 8.7 m/s)
gusting to 28 MPH (24 knots; 12.3 m/s)
Visibility: 10 or more miles (16+ km)
Ceiling: 3200 feet AGL
Clouds: few clouds at 2600 feet AGL
broken clouds at 3200 feet AGL
broken clouds at 4000 feet AGL
Weather: no significant weather observed at this time

METAR text: PGUM 190426Z 07015G23KT 10SM BKN028 BKN035 BKN042 29/22 A2987 RMK AO2 T02940217
Conditions at: PGUM (AGANA , GU, US) observed 0426 UTC 19 March 2019
Temperature: 29.4°C (85°F)
Dewpoint: 21.7°C (71°F) [RH = 63%]
Pressure (altimeter): 29.87 inches Hg (1011.6 mb)
Winds: from the ENE (70 degrees) at 17 MPH (15 knots; 7.7 m/s)
gusting to 26 MPH (23 knots; 11.8 m/s)
Visibility: 10 or more miles (16+ km)
Ceiling: 2800 feet AGL
Clouds: broken clouds at 2800 feet AGL
broken clouds at 3500 feet AGL
broken clouds at 4200 feet AGL
Weather: no significant weather observed at this time

METAR text: PGUM 190354Z 07016G24KT 10SM FEW027 SCT032 BKN048 30/21 A2987 RMK AO2 SLP107 T03000211
Conditions at: PGUM (AGANA , GU, US) observed 0354 UTC 19 March 2019
Temperature: 30.0°C (86°F)
Dewpoint: 21.1°C (70°F) [RH = 59%]
Pressure (altimeter): 29.87 inches Hg (1011.6 mb)
[Sea-level pressure: 1010.7 mb]
Winds: from the ENE (70 degrees) at 18 MPH (16 knots; 8.2 m/s)
gusting to 28 MPH (24 knots; 12.3 m/s)
Visibility: 10 or more miles (16+ km)
Ceiling: 4800 feet AGL
Clouds: few clouds at 2700 feet AGL
scattered clouds at 3200 feet AGL
broken clouds at 4800 feet AGL
Weather: no significant weather observed at this time

METAR text: PGUM 190308Z 07017KT 10SM SCT025 BKN032 BKN045 29/21 A2989 RMK AO2 T02890211
Conditions at: PGUM (AGANA , GU, US) observed 0308 UTC 19 March 2019
Temperature: 28.9°C (84°F)
Dewpoint: 21.1°C (70°F) [RH = 63%]
Pressure (altimeter): 29.89 inches Hg (1012.3 mb)
Winds: from the ENE (70 degrees) at 20 MPH (17 knots; 8.7 m/s)
Visibility: 10 or more miles (16+ km)
Ceiling: 3200 feet AGL
Clouds: scattered clouds at 2500 feet AGL
broken clouds at 3200 feet AGL
broken clouds at 4500 feet AGL
Weather: no significant weather observed at this time

METAR text: PGUM 190301Z 08018KT 10SM BKN025 BKN030 BKN045 29/21 A2989 RMK AO2 T02890211
Conditions at: PGUM (AGANA , GU, US) observed 0301 UTC 19 March 2019
Temperature: 28.9°C (84°F)
Dewpoint: 21.1°C (70°F) [RH = 63%]
Pressure (altimeter): 29.89 inches Hg (1012.3 mb)
Winds: from the E (80 degrees) at 21 MPH (18 knots; 9.3 m/s)
Visibility: 10 or more miles (16+ km)
Ceiling: 2500 feet AGL
Clouds: broken clouds at 2500 feet AGL
broken clouds at 3000 feet AGL
broken clouds at 4500 feet AGL
Weather: no significant weather observed at this time

METAR text: PGUM 190254Z 07017G26KT 10SM SCT027 BKN031 BKN038 29/22 A2989 RMK AO2 PK WND 08027/0244 SLP115 60000 T02940217 58013
Conditions at: PGUM (AGANA , GU, US) observed 0254 UTC 19 March 2019
Temperature: 29.4°C (85°F)
Dewpoint: 21.7°C (71°F) [RH = 63%]
Pressure (altimeter): 29.89 inches Hg (1012.3 mb)
[Sea-level pressure: 1011.5 mb]
Winds: from the ENE (70 degrees) at 20 MPH (17 knots; 8.7 m/s)
gusting to 30 MPH (26 knots; 13.4 m/s)
Visibility: 10 or more miles (16+ km)
Ceiling: 3100 feet AGL
Clouds: scattered clouds at 2700 feet AGL
broken clouds at 3100 feet AGL
broken clouds at 3800 feet AGL
Weather: no significant weather observed at this time

METAR text: PGUM 190154Z 05017G27KT 10SM FEW030 FEW037 30/21 A2992 RMK AO2 PK WND 04027/0145 RAE08 SLP122 P0000 T03000211
Conditions at: PGUM (AGANA , GU, US) observed 0154 UTC 19 March 2019
Temperature: 30.0°C (86°F)
Dewpoint: 21.1°C (70°F) [RH = 59%]
Pressure (altimeter): 29.92 inches Hg (1013.3 mb)
[Sea-level pressure: 1012.2 mb]
Winds: from the NE (50 degrees) at 20 MPH (17 knots; 8.7 m/s)
gusting to 31 MPH (27 knots; 13.9 m/s)
Visibility: 10 or more miles (16+ km)
Ceiling: at least 12,000 feet AGL
Clouds: few clouds at 3000 feet AGL
few clouds at 3700 feet AGL
Weather: no significant weather observed at this time

METAR text: PGUM 190054Z 06013G22KT 10SM -RA FEW023 BKN039 OVC047 28/22 A2993 RMK AO2 RAB50 SLP128 P0000 T02830222
Conditions at: PGUM (AGANA , GU, US) observed 0054 UTC 19 March 2019
Temperature: 28.3°C (83°F)
Dewpoint: 22.2°C (72°F) [RH = 70%]
Pressure (altimeter): 29.93 inches Hg (1013.6 mb)
[Sea-level pressure: 1012.8 mb]
Winds: from the ENE (60 degrees) at 15 MPH (13 knots; 6.7 m/s)
gusting to 25 MPH (22 knots; 11.3 m/s)
Visibility: 10 or more miles (16+ km)
Ceiling: 3900 feet AGL
Clouds: few clouds at 2300 feet AGL
broken clouds at 3900 feet AGL
overcast cloud deck at 4700 feet AGL
Weather: -RA  (light rain)

METAR text: PGUM 190039Z 06012KT 10SM SCT023 BKN033 BKN041 29/22 A2993 RMK AO2 T02940222
Conditions at: PGUM (AGANA , GU, US) observed 0039 UTC 19 March 2019
Temperature: 29.4°C (85°F)
Dewpoint: 22.2°C (72°F) [RH = 65%]
Pressure (altimeter): 29.93 inches Hg (1013.6 mb)
Winds: from the ENE (60 degrees) at 14 MPH (12 knots; 6.2 m/s)
Visibility: 10 or more miles (16+ km)
Ceiling: 3300 feet AGL
Clouds: scattered clouds at 2300 feet AGL
broken clouds at 3300 feet AGL
broken clouds at 4100 feet AGL
Weather: no significant weather observed at this time

METAR text: PGUM 190022Z 05018KT 10SM BKN022 BKN035 BKN043 29/22 A2993 RMK AO2 T02940222
Conditions at: PGUM (AGANA , GU, US) observed 0022 UTC 19 March 2019
Temperature: 29.4°C (85°F)
Dewpoint: 22.2°C (72°F) [RH = 65%]
Pressure (altimeter): 29.93 inches Hg (1013.6 mb)
Winds: from the NE (50 degrees) at 21 MPH (18 knots; 9.3 m/s)
Visibility: 10 or more miles (16+ km)
Ceiling: 2200 feet AGL
Clouds: broken clouds at 2200 feet AGL
broken clouds at 3500 feet AGL
broken clouds at 4300 feet AGL
Weather: no significant weather observed at this time

METAR text: PGUM 182354Z 05015KT 10SM FEW021 SCT037 BKN045 28/22 A2993 RMK AO2 SLP127 60000 T02830222 10283 20244 51012
Conditions at: PGUM (AGANA , GU, US) observed 2354 UTC 18 March 2019
Temperature: 28.3°C (83°F)
Dewpoint: 22.2°C (72°F) [RH = 70%]
Pressure (altimeter): 29.93 inches Hg (1013.6 mb)
[Sea-level pressure: 1012.7 mb]
Winds: from the NE (50 degrees) at 17 MPH (15 knots; 7.7 m/s)
Visibility: 10 or more miles (16+ km)
Ceiling: 4500 feet AGL
Clouds: few clouds at 2100 feet AGL
scattered clouds at 3700 feet AGL
broken clouds at 4500 feet AGL
Weather: no significant weather observed at this time

METAR text: PGUM 182320Z 06014KT 10SM FEW021 SCT027 BKN035 28/23 A2993 RMK AO2 T02780228
Conditions at: PGUM (AGANA , GU, US) observed 2320 UTC 18 March 2019
Temperature: 27.8°C (82°F)
Dewpoint: 22.8°C (73°F) [RH = 74%]
Pressure (altimeter): 29.93 inches Hg (1013.6 mb)
Winds: from the ENE (60 degrees) at 16 MPH (14 knots; 7.2 m/s)
Visibility: 10 or more miles (16+ km)
Ceiling: 3500 feet AGL
Clouds: few clouds at 2100 feet AGL
scattered clouds at 2700 feet AGL
broken clouds at 3500 feet AGL
Weather: no significant weather observed at this time

METAR text: PGUM 182313Z 06016G21KT 10SM FEW021 BKN027 BKN034 27/23 A2993 RMK AO2 T02720228
Conditions at: PGUM (AGANA , GU, US) observed 2313 UTC 18 March 2019
Temperature: 27.2°C (81°F)
Dewpoint: 22.8°C (73°F) [RH = 77%]
Pressure (altimeter): 29.93 inches Hg (1013.6 mb)
Winds: from the ENE (60 degrees) at 18 MPH (16 knots; 8.2 m/s)
gusting to 24 MPH (21 knots; 10.8 m/s)
Visibility: 10 or more miles (16+ km)
Ceiling: 2700 feet AGL
Clouds: few clouds at 2100 feet AGL
broken clouds at 2700 feet AGL
broken clouds at 3400 feet AGL
Weather: no significant weather observed at this time

METAR text: PGUM 182254Z 06013KT 10SM FEW018 SCT060 28/23 A2993 RMK AO2 RAB20E35 SLP125 P0000 T02780233
Conditions at: PGUM (AGANA , GU, US) observed 2254 UTC 18 March 2019
Temperature: 27.8°C (82°F)
Dewpoint: 23.3°C (74°F) [RH = 77%]
Pressure (altimeter): 29.93 inches Hg (1013.6 mb)
[Sea-level pressure: 1012.5 mb]
Winds: from the ENE (60 degrees) at 15 MPH (13 knots; 6.7 m/s)
Visibility: 10 or more miles (16+ km)
Ceiling: at least 12,000 feet AGL
Clouds: few clouds at 1800 feet AGL
scattered clouds at 6000 feet AGL
Weather: no significant weather observed at this time

METAR text: PGUM 182203Z 06010KT 10SM FEW015 SCT024 BKN032 27/23 A2992 RMK AO2 T02670233
Conditions at: PGUM (AGANA , GU, US) observed 2203 UTC 18 March 2019
Temperature: 26.7°C (80°F)
Dewpoint: 23.3°C (74°F) [RH = 82%]
Pressure (altimeter): 29.92 inches Hg (1013.3 mb)
Winds: from the ENE (60 degrees) at 12 MPH (10 knots; 5.1 m/s)
Visibility: 10 or more miles (16+ km)
Ceiling: 3200 feet AGL
Clouds: few clouds at 1500 feet AGL
scattered clouds at 2400 feet AGL
broken clouds at 3200 feet AGL
Weather: no significant weather observed at this time

METAR text: PGUM 182154Z 06008KT 10SM SCT015 SCT022 BKN028 26/23 A2991 RMK AO2 SLP123 T02610233
Conditions at: PGUM (AGANA , GU, US) observed 2154 UTC 18 March 2019
Temperature: 26.1°C (79°F)
Dewpoint: 23.3°C (74°F) [RH = 85%]
Pressure (altimeter): 29.91 inches Hg (1013.0 mb)
[Sea-level pressure: 1012.3 mb]
Winds: from the ENE (60 degrees) at 9 MPH (8 knots; 4.1 m/s)
Visibility: 10 or more miles (16+ km)
Ceiling: 2800 feet AGL
Clouds: scattered clouds at 1500 feet AGL
scattered clouds at 2200 feet AGL
broken clouds at 2800 feet AGL
Weather: no significant weather observed at this time

METAR text: PGUM 182054Z 05006KT 10SM CLR 25/23 A2990 RMK AO2 SLP117 T02500228 53010
Conditions at: PGUM (AGANA , GU, US) observed 2054 UTC 18 March 2019
Temperature: 25.0°C (77°F)
Dewpoint: 22.8°C (73°F) [RH = 88%]
Pressure (altimeter): 29.90 inches Hg (1012.6 mb)
[Sea-level pressure: 1011.7 mb]
Winds: from the NE (50 degrees) at 7 MPH (6 knots; 3.1 m/s)
Visibility: 10 or more miles (16+ km)
Ceiling: at least 12,000 feet AGL
Clouds: sky clear below 12,000 feet AGL
Weather: no significant weather observed at this time

METAR text: PGUM 181954Z 06007KT 10SM FEW016 FEW033 SCT041 25/23 A2987 RMK AO2 SLP108 T02500228
Conditions at: PGUM (AGANA , GU, US) observed 1954 UTC 18 March 2019
Temperature: 25.0°C (77°F)
Dewpoint: 22.8°C (73°F) [RH = 88%]
Pressure (altimeter): 29.87 inches Hg (1011.6 mb)
[Sea-level pressure: 1010.8 mb]
Winds: from the ENE (60 degrees) at 8 MPH (7 knots; 3.6 m/s)
Visibility: 10 or more miles (16+ km)
Ceiling: at least 12,000 feet AGL
Clouds: few clouds at 1600 feet AGL
few clouds at 3300 feet AGL
scattered clouds at 4100 feet AGL
Weather: no significant weather observed at this time

Forecast for: PGUM (AGANA , GU, US)
Text: PGUM 200529Z 2006/2112 05014KT P6SM FEW025 SCT040
Forecast period: 0600 to 0800 UTC 20 March 2019
Forecast type: FROM: standard forecast or significant change
Winds: from the NE (50 degrees) at 16 MPH (14 knots; 7.2 m/s)
Visibility: 6 or more miles 10+ km)
Ceiling: at least 12,000 feet AGL
Clouds: few clouds at 2500 feet AGL
scattered clouds at 4000 feet AGL
Weather: no significant weather forecast for this period
Text: FM200800 06008KT P6SM FEW025
Forecast period: 0800 to 2300 UTC 20 March 2019
Forecast type: FROM: standard forecast or significant change
Winds: from the ENE (60 degrees) at 9 MPH (8 knots; 4.1 m/s)
Visibility: 6 or more miles 10+ km)
Ceiling: at least 12,000 feet AGL
Clouds: few clouds at 2500 feet AGL
Weather: no significant weather forecast for this period
Text: FM202300 06014KT P6SM FEW020 SCT050
Forecast period: 2300 UTC 20 March 2019 to 1200 UTC 21 March 2019
Forecast type: FROM: standard forecast or significant change
Winds: from the ENE (60 degrees) at 16 MPH (14 knots; 7.2 m/s)
Visibility: 6 or more miles 10+ km)
Ceiling: at least 12,000 feet AGL
Clouds: few clouds at 2000 feet AGL
scattered clouds at 5000 feet AGL
Weather: no significant weather forecast for this period